Time;durP1;ratioP1;P1;durP2;ratioP2;P2;SDS_P1;SDS_P2;PMS_P1;PMS_P2;Temp;Humidity;BMP_temperature;BMP_pressure;BME280_temperature;BME280_humidity;BME280_pressure;Samples;Min_cycle;Max_cycle;Signal;HPM_P1;HPM_P2
2021/12/16 00:03:40;;;;;;;17.35;9.55;;;12.10;99.90;;;;;;5068554;28;20028;-76
2021/12/16 00:06:39;;;;;;;16.33;9.25;;;12.10;99.90;;;;;;5085361;28;20207;-76
2021/12/16 00:08:55;;;;;;;13.50;9.48;;;12.10;99.90;;;;;;5086375;28;20083;-75
2021/12/16 00:31:15;;;;;;;18.58;10.05;;;12.00;99.90;;;;;;5071961;28;20028;-75
2021/12/16 00:33:39;;;;;;;23.63;10.23;;;11.90;99.90;;;;;;5085775;28;20095;-74
2021/12/16 00:36:07;;;;;;;30.55;10.82;;;11.90;99.90;;;;;;5086704;28;20047;-74
2021/12/16 00:38:36;;;;;;;22.88;10.15;;;12.00;99.90;;;;;;5069065;28;20028;-74
2021/12/16 00:41:02;;;;;;;16.90;10.68;;;11.90;99.90;;;;;;5085259;28;20028;-75
2021/12/16 00:46:17;;;;;;;;;;;11.80;99.90;;;;;;5086609;28;20036;-74
2021/12/16 00:49:06;;;;;;;23.08;10.38;;;11.90;99.90;;;;;;5086398;28;19932;-76
2021/12/16 00:54:16;;;;;;;19.50;10.07;;;11.80;99.90;;;;;;5085630;28;20029;-75
2021/12/16 00:56:49;;;;;;;20.88;10.52;;;11.80;99.90;;;;;;5085975;28;20119;-75
2021/12/16 00:59:17;;;;;;;18.50;11.20;;;11.80;99.90;;;;;;5069248;28;20028;-76
2021/12/16 01:01:54;;;;;;;19.10;11.10;;;11.90;99.90;;;;;;5086066;28;20083;-74
2021/12/16 01:04:55;;;;;;;19.83;12.05;;;11.90;99.90;;;;;;5070353;28;20020;-74
2021/12/16 01:35:41;;;;;;;19.67;10.80;;;11.80;99.90;;;;;;5084752;28;20288;-75
2021/12/16 01:38:49;;;;;;;25.65;10.48;;;11.70;99.90;;;;;;5085332;28;20032;-74
2021/12/16 01:49:29;;;;;;;19.92;9.75;;;11.90;99.90;;;;;;5084243;28;20020;-75
2021/12/16 01:52:31;;;;;;;17.83;8.80;;;11.80;99.90;;;;;;5085269;28;20083;-75
2021/12/16 01:54:53;;;;;;;16.25;9.73;;;12.00;99.90;;;;;;5070196;28;20020;-75
2021/12/16 01:57:33;;;;;;;19.20;9.45;;;12.00;99.90;;;;;;5085150;28;20211;-76
2021/12/16 02:00:07;;;;;;;23.70;10.50;;;12.00;99.90;;;;;;5084882;28;20044;-76
2021/12/16 02:02:42;;;;;;;17.92;9.65;;;11.90;99.90;;;;;;5084036;28;20092;-76
2021/12/16 02:05:40;;;;;;;21.25;10.00;;;11.90;99.90;;;;;;5084165;28;20062;-76
2021/12/16 02:08:18;;;;;;;17.35;9.43;;;11.80;99.90;;;;;;5084500;28;20366;-72
2021/12/16 02:10:58;;;;;;;17.65;9.23;;;11.90;99.90;;;;;;5085026;28;20044;-75
2021/12/16 02:33:06;;;;;;;24.88;10.85;;;11.90;99.90;;;;;;5083552;28;20021;-76
2021/12/16 02:35:34;;;;;;;19.75;10.65;;;11.80;99.90;;;;;;5069807;28;20028;-77
2021/12/16 02:38:03;;;;;;;16.88;10.68;;;11.60;99.90;;;;;;5084273;28;20025;-79
2021/12/16 02:40:29;;;;;;;19.23;10.55;;;11.60;99.90;;;;;;5067146;28;20092;-75
2021/12/16 02:43:00;;;;;;;17.77;10.57;;;11.60;99.90;;;;;;5082636;28;20017;-75
2021/12/16 02:48:32;;;;;;;19.40;9.43;;;11.60;99.90;;;;;;5069645;28;20387;-76
2021/12/16 02:51:18;;;;;;;19.15;11.05;;;11.70;99.90;;;;;;5084107;28;20021;-75
2021/12/16 02:53:53;;;;;;;17.55;9.80;;;11.70;99.90;;;;;;5068838;28;20063;-76
2021/12/16 02:56:19;;;;;;;19.67;10.05;;;11.80;99.90;;;;;;5083615;28;20048;-75
2021/12/16 02:58:48;;;;;;;17.92;11.57;;;11.70;99.90;;;;;;5084107;28;20299;-75
2021/12/16 03:01:18;;;;;;;19.60;10.75;;;11.70;99.90;;;;;;5083125;28;20058;-77
2021/12/16 03:03:44;;;;;;;16.90;9.98;;;11.70;99.90;;;;;;5082892;28;20020;-73
2021/12/16 03:06:11;;;;;;;18.23;10.55;;;11.60;99.90;;;;;;5083196;28;20065;-75
2021/12/16 03:08:39;;;;;;;16.00;9.23;;;11.60;99.90;;;;;;5084049;28;20091;-76
2021/12/16 03:11:21;;;;;;;15.15;10.27;;;11.60;99.90;;;;;;5084076;28;20020;-75
2021/12/16 03:17:03;;;;;;;15.30;9.65;;;11.50;99.90;;;;;;5069481;28;20029;-76
2021/12/16 03:19:30;;;;;;;16.60;10.43;;;11.50;99.90;;;;;;5082504;28;20056;-76
2021/12/16 03:21:58;;;;;;;15.80;9.68;;;11.60;99.90;;;;;;5083785;28;20312;-74
2021/12/16 03:24:59;;;;;;;17.35;11.27;;;11.60;99.90;;;;;;5084892;28;20043;-74
2021/12/16 03:27:35;;;;;;;18.75;10.55;;;11.60;99.90;;;;;;5084424;28;20031;-76
2021/12/16 03:33:11;;;;;;;18.13;9.95;;;11.40;99.90;;;;;;5083889;28;20024;-73
2021/12/16 03:35:40;;;;;;;19.35;10.25;;;11.50;99.90;;;;;;5069492;28;20016;-77
2021/12/16 03:38:10;;;;;;;16.92;9.80;;;11.60;99.90;;;;;;5083670;28;20040;-78
2021/12/16 03:40:38;;;;;;;18.63;10.40;;;11.70;99.90;;;;;;5085232;28;20028;-75
2021/12/16 03:43:11;;;;;;;17.85;9.38;;;11.70;99.90;;;;;;5085940;28;20334;-78
2021/12/16 03:49:05;;;;;;;21.20;10.02;;;11.70;99.90;;;;;;5086802;28;20020;-76
2021/12/16 03:51:36;;;;;;;17.75;9.65;;;11.70;99.90;;;;;;5086128;28;20264;-74
2021/12/16 03:54:11;;;;;;;16.52;9.60;;;11.70;99.90;;;;;;5086646;28;20079;-76
2021/12/16 03:56:38;;;;;;;17.17;10.30;;;11.70;99.90;;;;;;5087385;28;20028;-75
2021/12/16 03:59:06;;;;;;;17.63;9.63;;;11.60;99.90;;;;;;5086295;28;20313;-76
2021/12/16 04:01:32;;;;;;;16.10;10.75;;;11.60;99.90;;;;;;5087141;28;20039;-75
2021/12/16 04:03:58;;;;;;;15.48;10.52;;;11.50;99.90;;;;;;5087534;28;20027;-77
2021/12/16 04:06:27;;;;;;;17.17;10.23;;;11.50;99.90;;;;;;5087426;28;20016;-75
2021/12/16 04:08:54;;;;;;;18.55;9.95;;;11.40;99.90;;;;;;5085700;28;20062;-74
2021/12/16 04:11:26;;;;;;;18.05;10.60;;;11.30;99.90;;;;;;5086184;28;20134;-76
2021/12/16 04:13:53;;;;;;;;;;;11.30;99.90;;;;;;5086577;28;20219;-76
2021/12/16 04:16:23;;;;;;;19.35;11.70;;;11.30;99.90;;;;;;5086125;28;19907;-73
2021/12/16 04:18:49;;;;;;;10.73;6.57;;;11.30;99.90;;;;;;5085360;28;20103;-75
2021/12/16 04:21:15;;;;;;;18.25;8.90;;;11.30;99.90;;;;;;5086902;28;20035;-75
2021/12/16 04:23:41;;;;;;;18.20;9.25;;;11.30;99.90;;;;;;5085905;28;20024;-76
2021/12/16 04:26:07;;;;;;;15.27;8.15;;;11.40;99.90;;;;;;5085532;28;20334;-75
2021/12/16 04:28:34;;;;;;;18.70;8.48;;;11.50;99.90;;;;;;5085966;28;20051;-77
2021/12/16 04:31:00;;;;;;;17.67;8.68;;;11.60;99.90;;;;;;5086677;28;20367;-75
2021/12/16 04:33:26;;;;;;;15.95;8.15;;;11.60;99.90;;;;;;5085662;28;20024;-74
2021/12/16 04:35:51;;;;;;;10.90;7.53;;;11.70;99.90;;;;;;5085833;28;20021;-76
2021/12/16 04:38:18;;;;;;;12.48;7.93;;;11.70;99.90;;;;;;5086673;28;20304;-77
2021/12/16 04:40:46;;;;;;;13.00;8.07;;;11.70;99.90;;;;;;5085377;28;20387;-76
2021/12/16 04:43:19;;;;;;;13.48;7.60;;;11.80;99.90;;;;;;5068590;28;20028;-75
2021/12/16 04:45:45;;;;;;;12.35;7.93;;;11.70;99.90;;;;;;5086640;28;20031;-75
2021/12/16 04:48:10;;;;;;;19.48;7.88;;;11.60;99.90;;;;;;5086740;28;20016;-75
2021/12/16 04:50:36;;;;;;;18.17;8.57;;;11.70;99.90;;;;;;5085820;28;20131;-78
2021/12/16 04:53:02;;;;;;;16.38;7.45;;;11.70;99.90;;;;;;5086360;28;20303;-75
2021/12/16 04:55:28;;;;;;;16.23;8.55;;;11.70;99.90;;;;;;5085357;28;20020;-75
2021/12/16 04:57:54;;;;;;;17.15;8.30;;;11.70;99.90;;;;;;5085046;28;20085;-74
2021/12/16 05:00:22;;;;;;;16.38;8.43;;;11.70;99.90;;;;;;5086266;28;20048;-76
2021/12/16 05:02:50;;;;;;;16.02;8.52;;;11.70;99.90;;;;;;5084692;28;20366;-76
2021/12/16 05:05:16;;;;;;;11.93;6.88;;;11.60;99.90;;;;;;5086119;28;20262;-73
2021/12/16 05:07:43;;;;;;;15.02;7.75;;;11.50;99.90;;;;;;5086314;28;20047;-77
2021/12/16 05:10:13;;;;;;;14.75;6.93;;;11.60;99.90;;;;;;5086097;28;20184;-74
2021/12/16 05:12:44;;;;;;;16.25;6.72;;;11.70;99.90;;;;;;5084871;28;20020;-77
2021/12/16 05:15:15;;;;;;;18.08;7.63;;;11.70;99.90;;;;;;5086266;28;20315;-75
2021/12/16 05:17:45;;;;;;;16.08;7.13;;;11.70;99.90;;;;;;5085974;28;20079;-75
2021/12/16 05:20:16;;;;;;;12.20;7.05;;;11.70;99.90;;;;;;5085567;28;20300;-75
2021/12/16 05:25:43;;;;;;;12.98;6.53;;;11.80;99.90;;;;;;5070909;28;20036;-73
2021/12/16 05:28:10;;;;;;;12.25;6.38;;;11.80;99.90;;;;;;5085104;28;20043;-76
2021/12/16 05:30:36;;;;;;;11.15;6.32;;;11.70;99.90;;;;;;5085812;28;20089;-75
2021/12/16 05:33:02;;;;;;;13.70;6.05;;;11.70;99.90;;;;;;5085068;28;20233;-76
2021/12/16 05:35:30;;;;;;;10.65;6.43;;;11.70;99.90;;;;;;5085840;28;20024;-74
2021/12/16 05:37:56;;;;;;;10.07;6.40;;;11.70;99.90;;;;;;5085664;28;20300;-75
2021/12/16 05:40:25;;;;;;;11.85;6.18;;;11.70;99.90;;;;;;5084309;28;20020;-75
2021/12/16 05:42:53;;;;;;;10.27;6.10;;;11.70;99.90;;;;;;5085350;28;20016;-76
2021/12/16 05:45:23;;;;;;;15.45;6.60;;;11.70;99.90;;;;;;5083038;28;20024;-74
2021/12/16 05:47:49;;;;;;;22.38;7.00;;;11.70;99.90;;;;;;5085490;28;20024;-75
2021/12/16 05:50:16;;;;;;;15.25;7.00;;;11.80;99.90;;;;;;5085241;28;20028;-76
2021/12/16 05:52:42;;;;;;;22.15;6.90;;;11.80;99.90;;;;;;5085204;28;20129;-76
2021/12/16 05:55:09;;;;;;;14.98;6.25;;;11.80;99.90;;;;;;5084981;28;20047;-77
2021/12/16 05:57:36;;;;;;;13.13;6.03;;;11.70;99.90;;;;;;5085388;28;20017;-76
2021/12/16 06:00:05;;;;;;;16.80;6.15;;;11.70;99.90;;;;;;5085075;28;20024;-77
2021/12/16 06:02:31;;;;;;;15.88;5.50;;;11.70;99.90;;;;;;5083956;28;20031;-76
2021/12/16 06:04:56;;;;;;;11.52;4.70;;;11.70;99.90;;;;;;5085329;28;20029;-76
2021/12/16 06:07:22;;;;;;;12.52;6.88;;;11.70;99.90;;;;;;5085105;28;20016;-74
2021/12/16 06:09:48;;;;;;;9.90;6.60;;;11.60;99.90;;;;;;5083829;28;20024;-75
2021/12/16 06:12:16;;;;;;;9.80;6.60;;;11.60;99.90;;;;;;5084775;28;20187;-77
2021/12/16 06:28:34;;;;;;;43.90;7.75;;;11.60;99.90;;;;;;5083834;28;20238;-75
2021/12/16 06:31:00;;;;;;;41.22;7.63;;;11.50;99.90;;;;;;5084254;28;20016;-77
2021/12/16 06:33:26;;;;;;;32.95;7.05;;;11.50;99.90;;;;;;5084083;28;20024;-75
2021/12/16 06:35:53;;;;;;;27.30;7.47;;;11.50;99.90;;;;;;5066833;28;20020;-75
2021/12/16 06:38:21;;;;;;;32.05;7.72;;;11.50;99.90;;;;;;5066585;28;20059;-74
2021/12/16 06:40:47;;;;;;;26.60;7.25;;;11.60;99.90;;;;;;5083358;28;20380;-76
2021/12/16 06:43:14;;;;;;;22.88;7.15;;;11.70;99.90;;;;;;5083024;28;20020;-76
2021/12/16 06:45:44;;;;;;;17.85;6.18;;;11.70;99.90;;;;;;5082975;28;20055;-76
2021/12/16 06:48:15;;;;;;;16.83;6.07;;;11.70;99.90;;;;;;5084338;28;20024;-77
2021/12/16 06:51:05;;;;;;;26.65;7.13;;;11.70;99.90;;;;;;5083221;28;20016;-76
2021/12/16 06:53:34;;;;;;;30.13;6.70;;;11.80;99.90;;;;;;5083046;28;20036;-75
2021/12/16 06:56:14;;;;;;;18.55;6.15;;;11.80;99.90;;;;;;5083076;28;20020;-75
2021/12/16 06:58:46;;;;;;;15.48;6.20;;;11.70;99.90;;;;;;5084016;28;20027;-76
2021/12/16 07:01:31;;;;;;;13.93;5.43;;;11.70;99.90;;;;;;5084154;28;20023;-75
2021/12/16 07:03:58;;;;;;;18.38;6.28;;;11.60;99.90;;;;;;5083011;28;20020;-76
2021/12/16 07:06:29;;;;;;;16.98;9.80;;;11.60;99.90;;;;;;5082987;28;20016;-77
2021/12/16 07:09:01;;;;;;;12.93;5.90;;;11.70;99.90;;;;;;5083052;28;20024;-75
2021/12/16 07:11:27;;;;;;;19.55;6.88;;;11.80;99.90;;;;;;5082955;28;20032;-75
2021/12/16 07:13:59;;;;;;;45.75;8.68;;;11.80;99.90;;;;;;5082549;28;20034;-76
2021/12/16 07:16:27;;;;;;;48.42;8.38;;;11.70;99.90;;;;;;5083138;28;20023;-77
2021/12/16 07:18:54;;;;;;;37.55;9.02;;;11.80;99.90;;;;;;5083466;28;20083;-78
2021/12/16 07:21:20;;;;;;;38.33;7.90;;;11.80;99.90;;;;;;5066196;28;20027;-75
2021/12/16 07:23:46;;;;;;;30.17;7.50;;;11.80;99.90;;;;;;5082596;28;20051;-76
2021/12/16 07:26:12;;;;;;;28.60;7.68;;;11.80;99.90;;;;;;5082464;28;20058;-77
2021/12/16 07:28:38;;;;;;;30.88;7.35;;;11.90;99.90;;;;;;5082710;28;20016;-76
2021/12/16 07:31:04;;;;;;;22.83;6.95;;;11.80;99.90;;;;;;5083842;28;20020;-77
2021/12/16 07:33:29;;;;;;;23.48;6.63;;;11.80;99.90;;;;;;5083258;28;20051;-76
2021/12/16 07:35:56;;;;;;;18.65;6.60;;;11.80;99.90;;;;;;5065944;28;20028;-77
2021/12/16 07:38:23;;;;;;;25.48;7.18;;;11.70;99.90;;;;;;5082571;28;20039;-77
2021/12/16 07:40:51;;;;;;;22.77;7.05;;;11.70;99.90;;;;;;5082701;28;20368;-77
2021/12/16 07:45:59;;;;;;;17.90;5.88;;;11.70;99.90;;;;;;5083476;28;20238;-76
2021/12/16 07:48:27;;;;;;;18.88;6.00;;;11.70;99.90;;;;;;5082009;28;20029;-76
2021/12/16 07:50:56;;;;;;;33.97;6.88;;;11.70;99.90;;;;;;5082647;28;20052;-75
2021/12/16 07:53:23;;;;;;;17.15;6.10;;;11.80;99.90;;;;;;5082423;28;20066;-78
2021/12/16 07:55:49;;;;;;;48.22;8.15;;;11.80;99.90;;;;;;5065374;28;20016;-76
2021/12/16 07:58:15;;;;;;;32.15;7.38;;;11.80;99.90;;;;;;5082493;28;20343;-78
2021/12/16 08:00:42;;;;;;;19.42;6.20;;;11.90;99.90;;;;;;5079350;28;20066;-75
2021/12/16 08:03:10;;;;;;;47.55;7.72;;;11.80;99.90;;;;;;5080672;28;20091;-75
2021/12/16 08:05:40;;;;;;;42.10;7.85;;;11.80;99.90;;;;;;5079709;28;20181;-76
2021/12/16 08:08:08;;;;;;;35.67;7.03;;;11.90;99.90;;;;;;5079190;28;20020;-77
2021/12/16 08:10:34;;;;;;;23.13;6.85;;;11.90;99.90;;;;;;5064519;28;20096;-76
2021/12/16 08:13:00;;;;;;;19.40;6.45;;;11.80;99.90;;;;;;5080995;28;20064;-77
2021/12/16 08:15:26;;;;;;;17.40;6.80;;;11.80;99.90;;;;;;5072513;28;20074;-78
2021/12/16 08:17:54;;;;;;;16.10;7.18;;;11.70;99.90;;;;;;5082134;28;20059;-79
2021/12/16 08:20:20;;;;;;;17.52;6.45;;;11.70;99.90;;;;;;5074380;28;20099;-76
2021/12/16 08:22:48;;;;;;;16.88;6.20;;;11.60;99.90;;;;;;5062325;28;20028;-75
2021/12/16 08:25:15;;;;;;;16.42;6.63;;;11.70;99.90;;;;;;5078697;28;20088;-73
2021/12/16 08:27:41;;;;;;;29.38;7.07;;;11.80;99.90;;;;;;5066983;28;20032;-75
2021/12/16 08:30:10;;;;;;;25.90;6.80;;;11.80;99.90;;;;;;5075513;28;20383;-74
2021/12/16 08:32:37;;;;;;;73.68;10.23;;;11.80;99.90;;;;;;5079985;28;20308;-75
2021/12/16 08:35:05;;;;;;;68.05;10.75;;;11.90;99.90;;;;;;5065730;28;20085;-74
2021/12/16 08:37:31;;;;;;;46.60;9.10;;;12.00;99.90;;;;;;5075560;28;20025;-74
2021/12/16 08:39:57;;;;;;;38.85;7.75;;;12.00;99.90;;;;;;5072819;28;20323;-77
2021/12/16 08:42:22;;;;;;;48.20;8.50;;;12.10;99.90;;;;;;5076846;28;20334;-76
2021/12/16 08:44:49;;;;;;;36.20;7.35;;;12.10;99.90;;;;;;5076521;28;20047;-77
2021/12/16 08:47:18;;;;;;;28.27;7.57;;;12.10;99.90;;;;;;5065888;28;20158;-79
2021/12/16 08:49:44;;;;;;;28.38;7.18;;;12.10;99.90;;;;;;5084539;28;20039;-80
2021/12/16 08:52:14;;;;;;;21.00;6.80;;;12.20;99.90;;;;;;5080037;28;20074;-79
2021/12/16 08:54:43;;;;;;;34.13;7.63;;;12.10;99.90;;;;;;5082321;28;20060;-78
2021/12/16 08:57:09;;;;;;;38.97;8.27;;;12.20;99.90;;;;;;5083714;28;20061;-78
2021/12/16 08:59:35;;;;;;;34.40;7.15;;;12.30;99.90;;;;;;5081547;28;20040;-79
2021/12/16 09:02:02;;;;;;;23.98;7.38;;;12.30;99.90;;;;;;5066462;28;20027;-78
2021/12/16 09:04:29;;;;;;;25.67;6.90;;;12.20;99.90;;;;;;5076581;28;20028;-78
2021/12/16 09:07:03;;;;;;;29.80;7.35;;;12.20;99.90;;;;;;5079769;28;20093;-82
2021/12/16 09:09:33;;;;;;;30.85;8.00;;;12.20;99.90;;;;;;5075993;28;20035;-80
2021/12/16 09:12:10;;;;;;;18.85;6.80;;;12.20;99.90;;;;;;5072143;28;20274;-76
2021/12/16 09:14:38;;;;;;;26.40;7.18;;;12.20;99.90;;;;;;5082068;28;20335;-78
2021/12/16 09:17:09;;;;;;;13.55;6.68;;;12.20;99.90;;;;;;5083212;28;20053;-77
2021/12/16 09:19:38;;;;;;;45.83;8.23;;;12.20;99.90;;;;;;5080448;28;20048;-76
2021/12/16 09:22:03;;;;;;;21.45;7.13;;;12.20;99.90;;;;;;5079569;28;20105;-78
2021/12/16 09:24:29;;;;;;;22.73;6.97;;;12.30;99.90;;;;;;5076244;28;20300;-72
2021/12/16 09:26:55;;;;;;;35.45;9.07;;;12.30;99.90;;;;;;5080677;28;20350;-74
2021/12/16 09:29:24;;;;;;;15.85;6.40;;;12.30;99.90;;;;;;5081049;28;20215;-74
2021/12/16 09:31:51;;;;;;;20.13;7.43;;;12.30;99.90;;;;;;5076962;28;20028;-78
2021/12/16 09:34:17;;;;;;;21.15;7.25;;;12.30;99.90;;;;;;5069707;28;20091;-72
2021/12/16 09:36:45;;;;;;;19.42;7.32;;;12.30;99.90;;;;;;5074922;28;20028;-77
2021/12/16 09:39:16;;;;;;;26.80;7.65;;;12.40;99.90;;;;;;5073913;28;20043;-74
2021/12/16 09:41:46;;;;;;;30.67;8.90;;;12.50;99.90;;;;;;5082145;28;20038;-78
2021/12/16 09:44:12;;;;;;;31.58;7.95;;;12.60;99.90;;;;;;5079069;28;20017;-77
2021/12/16 09:46:39;;;;;;;32.95;7.95;;;12.60;99.90;;;;;;5048038;28;20208;-75
2021/12/16 09:49:07;;;;;;;28.15;7.35;;;12.60;99.90;;;;;;5060699;28;20250;-74
2021/12/16 09:51:36;;;;;;;24.55;7.50;;;12.60;99.90;;;;;;5081810;28;20095;-71
2021/12/16 09:54:08;;;;;;;27.20;7.68;;;12.60;99.90;;;;;;5060738;28;20067;-73
2021/12/16 09:56:35;;;;;;;24.15;6.68;;;12.60;99.90;;;;;;5075940;28;20036;-75
2021/12/16 09:59:03;;;;;;;27.13;7.18;;;12.50;99.90;;;;;;5080357;28;20028;-72
2021/12/16 10:01:37;;;;;;;39.28;7.80;;;12.60;99.90;;;;;;5083199;28;20075;-74
2021/12/16 10:04:07;;;;;;;31.05;8.02;;;12.60;99.90;;;;;;5080954;28;20020;-74
2021/12/16 10:06:36;;;;;;;39.00;8.15;;;12.60;99.90;;;;;;5081918;28;20099;-76
2021/12/16 10:09:05;;;;;;;23.00;6.45;;;12.60;99.90;;;;;;5072902;28;20024;-74
2021/12/16 10:11:33;;;;;;;26.08;6.97;;;12.60;99.90;;;;;;5081874;28;20040;-79
2021/12/16 10:14:14;;;;;;;31.48;7.85;;;12.60;99.90;;;;;;5069590;28;20017;-75
2021/12/16 10:19:31;;;;;;;21.27;7.75;;;12.70;99.90;;;;;;5065077;28;20048;-74
2021/12/16 10:22:16;;;;;;;17.73;7.22;;;12.70;99.90;;;;;;5063668;28;20020;-74
2021/12/16 10:24:42;;;;;;;17.92;8.15;;;12.70;99.90;;;;;;5078698;28;20016;-77
2021/12/16 10:27:24;;;;;;;24.70;8.07;;;12.70;99.90;;;;;;5074528;28;20078;-75
2021/12/16 10:29:58;;;;;;;24.55;7.80;;;12.70;99.90;;;;;;5077848;28;20029;-77
2021/12/16 10:32:43;;;;;;;20.73;7.97;;;12.80;99.90;;;;;;5081252;28;20051;-76
2021/12/16 10:35:16;;;;;;;22.80;8.48;;;12.90;99.90;;;;;;5064552;28;20379;-75
2021/12/16 10:37:49;;;;;;;25.42;7.93;;;12.80;99.90;;;;;;5070644;28;20029;-76
2021/12/16 10:40:40;;;;;;;16.45;7.55;;;12.80;99.90;;;;;;5069805;28;20027;-78
2021/12/16 10:43:10;;;;;;;17.25;7.80;;;12.90;99.90;;;;;;5080748;28;20080;-77
2021/12/16 10:45:44;;;;;;;29.35;8.55;;;13.10;99.60;;;;;;5081184;28;20039;-77
2021/12/16 10:48:22;;;;;;;42.45;9.35;;;13.00;99.60;;;;;;5076503;28;20070;-75
2021/12/16 10:51:02;;;;;;;45.67;9.48;;;13.10;99.40;;;;;;5080636;28;20062;-73
2021/12/16 10:53:51;;;;;;;39.97;9.07;;;13.10;99.50;;;;;;5082158;28;20033;-75
2021/12/16 10:56:22;;;;;;;31.67;9.15;;;13.10;99.20;;;;;;5081657;28;20046;-73
2021/12/16 10:59:11;;;;;;;30.00;8.38;;;13.20;99.10;;;;;;5083516;28;20051;-74
2021/12/16 11:01:46;;;;;;;24.15;8.00;;;13.20;98.90;;;;;;5082094;28;20307;-76
2021/12/16 11:04:23;;;;;;;18.00;7.07;;;13.30;98.30;;;;;;5082379;28;20040;-76
2021/12/16 11:06:55;;;;;;;20.08;6.93;;;13.30;97.50;;;;;;5082816;28;20095;-75
2021/12/16 11:09:35;;;;;;;33.53;8.23;;;13.40;97.30;;;;;;5081916;28;20162;-78
2021/12/16 11:12:23;;;;;;;28.88;7.45;;;13.40;97.40;;;;;;5049790;28;20025;-76
2021/12/16 11:14:57;;;;;;;17.55;6.13;;;13.50;97.60;;;;;;5067707;28;20031;-79
2021/12/16 11:17:25;;;;;;;13.98;5.55;;;13.50;97.30;;;;;;5066115;28;20299;-77
2021/12/16 11:20:00;;;;;;;10.30;5.18;;;13.40;97.10;;;;;;5081459;28;20052;-73
2021/12/16 11:22:37;;;;;;;18.55;6.20;;;13.40;96.60;;;;;;5080974;28;20059;-73
2021/12/16 11:25:32;;;;;;;17.50;6.35;;;13.40;97.00;;;;;;5065018;28;20036;-75
2021/12/16 11:28:20;;;;;;;13.52;5.95;;;13.40;97.00;;;;;;5052569;28;20338;-79
2021/12/16 11:30:55;;;;;;;15.40;5.88;;;13.40;96.90;;;;;;5049973;28;20028;-75
2021/12/16 11:33:27;;;;;;;13.90;6.60;;;13.40;97.00;;;;;;5081237;28;20300;-76
2021/12/16 11:35:59;;;;;;;13.57;6.30;;;13.40;96.80;;;;;;5082331;28;20338;-76
2021/12/16 11:38:34;;;;;;;10.75;6.22;;;13.40;96.60;;;;;;5081566;28;20020;-79
2021/12/16 11:41:40;;;;;;;9.90;6.63;;;13.40;96.70;;;;;;5082260;28;20032;-77
2021/12/16 11:44:20;;;;;;;9.40;5.93;;;13.30;96.40;;;;;;5081445;28;20032;-75
2021/12/16 11:47:02;;;;;;;10.13;5.90;;;13.30;96.30;;;;;;5081914;28;20304;-77
2021/12/16 11:49:45;;;;;;;10.02;6.43;;;13.40;96.40;;;;;;5081705;28;20017;-76
2021/12/16 11:52:19;;;;;;;12.00;6.00;;;13.40;96.50;;;;;;5081474;28;20326;-77
2021/12/16 11:54:52;;;;;;;15.10;6.22;;;13.50;96.50;;;;;;5081591;28;20119;-75
2021/12/16 11:57:25;;;;;;;11.48;6.35;;;13.50;96.40;;;;;;5081363;28;20203;-74
2021/12/16 12:00:02;;;;;;;11.35;5.80;;;13.50;96.40;;;;;;5081341;28;20108;-75
2021/12/16 12:02:45;;;;;;;11.50;6.05;;;13.50;96.60;;;;;;5092408;28;20206;-76
2021/12/16 12:05:27;;;;;;;12.18;4.80;;;13.60;96.70;;;;;;5084583;28;20042;-77
2021/12/16 12:07:58;;;;;;;8.52;5.22;;;13.50;95.90;;;;;;5085715;28;20048;-74
2021/12/16 12:10:45;;;;;;;8.73;5.22;;;13.50;95.80;;;;;;5086823;28;20012;-73
2021/12/16 12:13:16;;;;;;;7.97;5.38;;;13.40;96.10;;;;;;5099194;28;20021;-74
2021/12/16 12:16:19;;;;;;;10.40;5.72;;;13.40;95.60;;;;;;5086377;28;20012;-78
2021/12/16 12:19:09;;;;;;;11.57;6.65;;;13.30;95.80;;;;;;5084970;28;20048;-78
2021/12/16 12:21:57;;;;;;;9.40;6.03;;;13.20;95.70;;;;;;5085013;28;20211;-74
2021/12/16 12:24:31;;;;;;;20.27;5.47;;;13.30;95.80;;;;;;5085592;28;20009;-77
2021/12/16 12:27:16;;;;;;;7.60;4.35;;;13.30;95.80;;;;;;5088130;28;20016;-75
2021/12/16 12:29:48;;;;;;;5.50;3.80;;;13.30;94.90;;;;;;5057858;28;20024;-77
2021/12/16 12:32:31;;;;;;;8.27;3.83;;;13.30;94.80;;;;;;5088011;28;20024;-74
2021/12/16 12:35:07;;;;;;;6.10;3.53;;;13.30;94.80;;;;;;5088676;28;20031;-79
2021/12/16 12:37:36;;;;;;;7.82;3.85;;;13.30;94.50;;;;;;5088366;28;20024;-79
2021/12/16 12:40:20;;;;;;;33.35;6.03;;;13.20;94.20;;;;;;5084456;28;20070;-73
2021/12/16 12:42:48;;;;;;;10.18;4.15;;;13.20;94.70;;;;;;5084759;28;20194;-75
2021/12/16 12:45:19;;;;;;;12.82;4.28;;;13.30;94.40;;;;;;5084326;28;20028;-74
2021/12/16 12:47:48;;;;;;;19.98;5.75;;;13.40;94.10;;;;;;5081084;28;20024;-74
2021/12/16 12:50:18;;;;;;;29.27;5.43;;;13.40;94.30;;;;;;5073705;28;20083;-75
2021/12/16 12:52:47;;;;;;;11.80;4.28;;;13.40;94.40;;;;;;5072729;28;20079;-78
2021/12/16 12:55:17;;;;;;;12.18;4.20;;;13.40;94.40;;;;;;5080020;28;20134;-77
2021/12/16 12:57:45;;;;;;;11.40;4.18;;;13.40;94.00;;;;;;5083112;28;20021;-76
2021/12/16 13:00:37;;;;;;;43.45;6.63;;;13.50;93.60;;;;;;5082503;28;20036;-75
2021/12/16 13:03:07;;;;;;;10.93;3.72;;;13.60;93.70;;;;;;5082562;28;20073;-75
2021/12/16 13:05:37;;;;;;;20.07;4.37;;;13.60;92.90;;;;;;5076801;28;20033;-75
2021/12/16 13:08:08;;;;;;;15.82;4.30;;;13.60;93.20;;;;;;5067117;28;20032;-74
2021/12/16 13:10:45;;;;;;;7.57;4.00;;;13.50;93.20;;;;;;5078772;28;20029;-76
2021/12/16 13:13:31;;;;;;;12.45;3.97;;;13.50;93.10;;;;;;5063938;28;20016;-76
2021/12/16 13:16:34;;;;;;;9.32;3.72;;;13.50;93.30;;;;;;5073640;28;20308;-75
2021/12/16 13:25:01;;;;;;;10.48;5.05;;;13.30;93.30;;;;;;5076341;28;20080;-75
2021/12/16 13:27:42;;;;;;;7.28;4.20;;;13.30;93.70;;;;;;5070391;28;20090;-78
2021/12/16 13:30:21;;;;;;;7.85;4.00;;;13.30;93.90;;;;;;5064407;28;20027;-75
2021/12/16 13:33:20;;;;;;;13.88;5.22;;;13.30;93.40;;;;;;5082672;28;20367;-75
2021/12/16 13:35:52;;;;;;;7.10;4.38;;;13.10;94.10;;;;;;5073315;28;20024;-79
2021/12/16 13:38:21;;;;;;;8.95;4.18;;;13.20;94.30;;;;;;5063420;28;20028;-79
2021/12/16 13:40:49;;;;;;;6.22;4.03;;;13.10;93.70;;;;;;5060634;28;20021;-78
2021/12/16 13:43:28;;;;;;;5.47;4.00;;;13.00;93.80;;;;;;5082262;28;20024;-77
2021/12/16 14:01:08;;;;;;;6.72;4.50;;;13.10;94.60;;;;;;5077801;28;20028;-78
2021/12/16 14:03:15;;;;;;;7.60;5.13;;;13.00;93.70;;;;;;5067312;28;20040;-79
2021/12/16 14:06:40;;;;;;;13.98;5.15;;;13.00;93.80;;;;;;5075745;28;20066;-77
2021/12/16 14:08:47;;;;;;;6.30;4.53;;;13.00;94.10;;;;;;5079131;28;20246;-80
2021/12/16 14:12:13;;;;;;;11.02;5.32;;;12.90;93.60;;;;;;5069917;28;20031;-82
2021/12/16 14:14:54;;;;;;;6.40;4.22;;;12.80;93.60;;;;;;5054687;28;20020;-77
2021/12/16 14:18:04;;;;;;;10.50;5.00;;;12.80;93.40;;;;;;5067042;28;20021;-77
2021/12/16 14:23:58;;;;;;;13.18;6.13;;;12.90;93.80;;;;;;5083749;28;20029;-77
2021/12/16 14:26:43;;;;;;;8.57;5.38;;;13.00;93.50;;;;;;5063671;28;20025;-76
2021/12/16 14:35:00;;;;;;;8.82;5.78;;;12.80;93.50;;;;;;5077108;28;20024;-80
2021/12/16 14:37:33;;;;;;;10.48;5.70;;;12.80;93.70;;;;;;5077204;28;20070;-73
2021/12/16 14:40:10;;;;;;;9.55;5.45;;;12.80;93.70;;;;;;5082127;28;20032;-75
2021/12/16 14:45:43;;;;;;;9.65;5.50;;;12.90;93.70;;;;;;5056568;28;20270;-77
2021/12/16 14:48:28;;;;;;;11.02;5.45;;;13.00;93.70;;;;;;5079932;28;20324;-77
2021/12/16 14:50:59;;;;;;;8.73;5.50;;;13.00;93.50;;;;;;5055849;28;20109;-82
2021/12/16 14:53:35;;;;;;;7.43;5.60;;;13.00;93.40;;;;;;5079144;28;20315;-80
2021/12/16 14:56:14;;;;;;;11.73;6.80;;;12.90;93.40;;;;;;5074425;28;20024;-73
2021/12/16 14:58:47;;;;;;;12.50;6.07;;;12.90;93.60;;;;;;5075576;28;20041;-82
2021/12/16 15:01:22;;;;;;;11.45;6.30;;;12.80;94.10;;;;;;5080661;28;20234;-78
2021/12/16 15:03:50;;;;;;;17.73;9.40;;;12.80;94.40;;;;;;5066071;28;20041;-80
2021/12/16 15:06:22;;;;;;;12.65;6.38;;;12.70;93.90;;;;;;5075402;28;20043;-78
2021/12/16 15:08:59;;;;;;;12.63;6.78;;;12.70;94.10;;;;;;5077144;28;20253;-80
2021/12/16 15:11:42;;;;;;;10.40;6.07;;;12.70;94.00;;;;;;5080003;28;20224;-77
2021/12/16 15:14:25;;;;;;;11.48;6.20;;;12.70;94.40;;;;;;5063082;28;20080;-80
2021/12/16 15:36:47;;;;;;;8.18;4.97;;;12.60;94.20;;;;;;5052643;28;20080;-74
2021/12/16 15:45:01;;;;;;;7.10;4.82;;;12.40;93.70;;;;;;5061079;28;20063;-75
2021/12/16 15:47:26;;;;;;;13.88;5.22;;;12.30;93.70;;;;;;5077364;28;20088;-76
2021/12/16 15:49:53;;;;;;;12.88;7.68;;;12.30;93.80;;;;;;5078472;28;20032;-74
2021/12/16 15:52:20;;;;;;;10.77;6.20;;;12.30;93.90;;;;;;5063588;28;20326;-77
2021/12/16 15:54:49;;;;;;;14.68;9.90;;;12.40;94.30;;;;;;5076841;28;20236;-73
2021/12/16 15:57:18;;;;;;;16.55;9.95;;;12.30;94.60;;;;;;5079652;28;20020;-73
2021/12/16 15:59:48;;;;;;;11.95;6.22;;;12.20;94.30;;;;;;5082201;28;20051;-74
2021/12/16 16:02:16;;;;;;;12.02;6.93;;;12.20;93.90;;;;;;5083661;28;20032;-78